Time;durP1;ratioP1;P1;durP2;ratioP2;P2;SDS_P1;SDS_P2;PMS_P1;PMS_P2;Temp;Humidity;BMP_temperature;BMP_pressure;BME280_temperature;BME280_humidity;BME280_pressure;Samples;Min_cycle;Max_cycle;Signal;HPM_P1;HPM_P2
2024/01/20 00:01:55;;;;;;;1.57;1.30;;;;;;;1.42;100.00;63062.47;5071703;28;20304;-55
2024/01/20 00:04:21;;;;;;;1.17;1.07;;;;;;;1.33;100.00;63057.13;5071814;28;20647;-56
2024/01/20 00:06:47;;;;;;;1.67;1.40;;;;;;;1.45;100.00;63067.66;5071951;28;20214;-54
2024/01/20 00:09:12;;;;;;;1.67;1.10;;;;;;;1.40;100.00;63059.75;5070359;28;20181;-53
2024/01/20 00:11:38;;;;;;;1.37;1.27;;;;;;;1.29;100.00;63050.31;5053977;28;20193;-54
2024/01/20 00:14:04;;;;;;;1.37;1.20;;;;;;;1.30;100.00;63051.41;5053660;28;20197;-53
2024/01/20 00:16:30;;;;;;;1.20;1.10;;;;;;;1.19;100.00;63037.53;5071429;28;20747;-55
2024/01/20 00:18:55;;;;;;;1.17;1.17;;;;;;;1.22;100.00;63043.28;5053478;28;20661;-52
2024/01/20 00:21:21;;;;;;;1.20;1.10;;;;;;;1.29;100.00;63050.31;5071559;28;20640;-53
2024/01/20 00:23:47;;;;;;;1.37;1.07;;;;;;;1.20;100.00;63041.09;5071273;28;20216;-54
2024/01/20 00:26:13;;;;;;;1.17;1.03;;;;;;;1.18;100.00;63038.94;5071529;28;20318;-54
2024/01/20 00:28:39;;;;;;;1.70;1.00;;;;;;;1.23;100.00;63046.28;5071306;28;20221;-54
2024/01/20 00:31:04;;;;;;;1.37;1.10;;;;;;;1.16;100.00;63036.78;5053400;28;20567;-54
2024/01/20 00:33:30;;;;;;;0.90;0.90;;;;;;;1.14;100.00;63032.13;5071221;28;20213;-55
2024/01/20 00:35:55;;;;;;;1.87;1.30;;;;;;;1.16;100.00;63034.28;5070987;28;20696;-55
2024/01/20 00:38:21;;;;;;;1.30;1.20;;;;;;;1.22;100.00;63043.28;5070167;28;20231;-53
2024/01/20 00:40:47;;;;;;;1.10;0.93;;;;;;;1.42;100.00;63067.44;5052868;28;20689;-53
2024/01/20 00:43:12;;;;;;;1.20;1.10;;;;;;;1.25;100.00;63046.50;5071019;28;20283;-55
2024/01/20 00:45:38;;;;;;;2.03;1.30;;;;;;;1.12;100.00;63029.94;5071095;28;20185;-53
2024/01/20 00:48:04;;;;;;;1.50;1.30;;;;;;;1.14;100.00;63032.13;5071025;28;20209;-52
2024/01/20 00:50:30;;;;;;;4.43;1.33;;;;;;;1.18;100.00;63036.47;5070927;28;20185;-53
2024/01/20 00:52:56;;;;;;;1.00;0.90;;;;;;;0.99;100.00;63017.81;5071185;28;20232;-54
2024/01/20 00:55:21;;;;;;;2.20;0.93;;;;;;;1.00;100.00;63018.88;5070974;28;20223;-56
2024/01/20 00:57:47;;;;;;;1.67;1.33;;;;;;;0.98;100.00;63017.25;5071060;28;20279;-54
2024/01/20 01:00:13;;;;;;;1.47;0.87;;;;;;;0.96;100.00;63015.09;5052954;28;20227;-53
2024/01/20 01:02:40;;;;;;;1.13;1.03;;;;;;;1.00;100.00;63018.88;5070646;28;20236;-55
2024/01/20 01:05:06;;;;;;;1.10;1.00;;;;;;;0.98;100.00;63017.25;5052992;28;20207;-53
2024/01/20 01:07:32;;;;;;;2.30;1.20;;;;;;;1.02;100.00;63021.59;5052985;28;20213;-57
2024/01/20 01:09:58;;;;;;;1.20;1.10;;;;;;;1.07;100.00;63024.53;5070760;28;20181;-53
2024/01/20 01:12:24;;;;;;;1.47;1.30;;;;;;;0.88;100.00;63006.44;5071138;28;20254;-55
2024/01/20 01:14:49;;;;;;;1.77;1.43;;;;;;;0.91;100.00;63006.66;5070679;28;20189;-55
2024/01/20 01:17:18;;;;;;;1.07;1.07;;;;;;;0.82;100.00;62998.00;5070797;28;20208;-54
2024/01/20 01:19:45;;;;;;;1.90;1.37;;;;;;;0.88;100.00;63001.47;5070830;28;20250;-53
2024/01/20 01:22:10;;;;;;;2.93;1.30;;;;;;;0.90;100.00;63006.13;5070672;28;20604;-54
2024/01/20 01:24:37;;;;;;;1.10;1.00;;;;;;;0.95;100.00;63011.53;5052680;28;20195;-54
2024/01/20 01:27:04;;;;;;;0.87;0.87;;;;;;;0.97;100.00;63015.66;5070980;28;20219;-54
2024/01/20 01:29:29;;;;;;;1.37;1.07;;;;;;;0.89;100.00;63005.03;5070469;28;20225;-55
2024/01/20 01:31:55;;;;;;;1.20;1.10;;;;;;;0.80;100.00;63000.25;5070868;28;20737;-53
2024/01/20 01:34:20;;;;;;;1.67;1.00;;;;;;;0.79;100.00;62999.69;5070518;28;20234;-56
2024/01/20 01:36:46;;;;;;;1.67;1.20;;;;;;;0.78;100.00;62993.13;5070247;28;20209;-54
2024/01/20 01:39:11;;;;;;;1.30;1.20;;;;;;;0.79;100.00;62996.66;5070491;28;20273;-54
2024/01/20 01:41:44;;;;;;;1.00;0.90;;;;;;;0.73;100.00;62990.72;5070450;28;20268;-55
2024/01/20 01:44:10;;;;;;;1.77;1.37;;;;;;;0.74;100.00;62991.25;5070454;28;20200;-53
2024/01/20 01:46:36;;;;;;;1.43;1.17;;;;;;;0.66;100.00;62983.16;5070558;28;20189;-55
2024/01/20 01:49:03;;;;;;;1.40;1.23;;;;;;;0.61;100.00;62974.69;5070168;28;20189;-54
2024/01/20 01:51:30;;;;;;;1.20;1.07;;;;;;;0.47;100.00;62965.03;5073430;28;20553;-55
2024/01/20 01:53:57;;;;;;;1.40;1.10;;;;;;;0.68;100.00;62982.28;5073843;28;20204;-54
2024/01/20 01:56:23;;;;;;;1.10;1.00;;;;;;;0.26;100.00;62936.81;5055935;28;20712;-55
2024/01/20 01:58:49;;;;;;;1.50;1.30;;;;;;;0.33;100.00;62944.91;5073860;28;20209;-54
2024/01/20 02:01:14;;;;;;;1.40;1.27;;;;;;;0.23;100.00;62936.03;5073935;28;20191;-53
2024/01/20 02:03:40;;;;;;;1.33;1.00;;;;;;;0.14;100.00;62926.84;5073516;28;20215;-54
2024/01/20 02:06:06;;;;;;;1.63;1.30;;;;;;;0.16;100.00;62930.94;5073673;28;20189;-54
2024/01/20 02:08:34;;;;;;;1.40;1.30;;;;;;;0.05;100.00;62916.53;5073582;28;20247;-55
2024/01/20 02:11:01;;;;;;;1.87;1.50;;;;;;;-0.02;100.00;62907.56;5055565;28;20266;-54
2024/01/20 02:13:27;;;;;;;1.40;1.30;;;;;;;-0.13;100.00;62898.16;5073802;28;20220;-54
2024/01/20 02:15:53;;;;;;;1.90;1.40;;;;;;;-0.13;100.00;62898.16;5073635;28;20206;-55
2024/01/20 02:18:22;;;;;;;2.00;1.70;;;;;;;-0.12;100.00;62896.75;5073726;28;20246;-55
2024/01/20 02:20:48;;;;;;;1.87;1.73;;;;;;;-0.13;100.00;62895.69;5073550;28;20235;-53
2024/01/20 02:23:14;;;;;;;2.33;1.80;;;;;;;-0.10;100.00;62900.84;5055482;28;20219;-53
2024/01/20 02:25:39;;;;;;;1.87;1.47;;;;;;;-0.16;100.00;62894.91;5073464;28;20193;-53
2024/01/20 02:28:06;;;;;;;1.50;1.40;;;;;;;-0.13;100.00;62897.59;5073301;28;20732;-53
2024/01/20 02:30:32;;;;;;;1.93;1.50;;;;;;;-0.27;100.00;62878.06;5073261;28;20187;-55
2024/01/20 02:32:58;;;;;;;1.97;1.87;;;;;;;-0.22;100.00;62887.84;5073041;28;20801;-55
2024/01/20 02:35:23;;;;;;;2.00;1.50;;;;;;;-0.30;100.00;62879.75;5073092;28;20212;-55
2024/01/20 02:37:49;;;;;;;4.03;1.40;;;;;;;-0.22;100.00;62888.41;5073482;28;20216;-55
2024/01/20 02:40:15;;;;;;;1.40;1.30;;;;;;;-0.30;100.00;62879.19;5073135;28;20609;-55
2024/01/20 02:42:41;;;;;;;1.33;1.20;;;;;;;-0.45;100.00;62863.53;5073331;28;20208;-54
2024/01/20 02:45:07;;;;;;;1.53;1.23;;;;;;;-0.38;100.00;62870.53;5073226;28;20678;-55
2024/01/20 02:47:32;;;;;;;1.27;1.10;;;;;;;-0.40;100.00;62868.91;5073195;28;20212;-54
2024/01/20 02:49:58;;;;;;;1.17;1.03;;;;;;;-0.39;100.00;62867.00;5055102;28;20196;-53
2024/01/20 02:52:23;;;;;;;1.67;0.93;;;;;;;-0.37;100.00;62867.22;5073141;28;20224;-53
2024/01/20 02:54:49;;;;;;;3.07;1.37;;;;;;;-0.44;100.00;62867.06;5071862;28;20650;-52
2024/01/20 02:57:16;;;;;;;1.10;1.00;;;;;;;-0.38;100.00;62871.09;5073418;28;20568;-54
2024/01/20 02:59:41;;;;;;;1.47;1.37;;;;;;;-0.42;100.00;62866.75;5072865;28;20564;-54
2024/01/20 03:02:07;;;;;;;1.30;1.20;;;;;;;-0.48;100.00;62860.28;5071609;28;20216;-55
2024/01/20 03:04:32;;;;;;;2.50;1.37;;;;;;;-0.48;100.00;62860.28;5072760;28;20185;-53
2024/01/20 03:06:58;;;;;;;1.40;1.30;;;;;;;-0.45;100.00;62863.53;5073055;28;20752;-53
2024/01/20 03:09:23;;;;;;;1.47;1.33;;;;;;;-0.53;100.00;62854.31;5072912;28;20189;-52
2024/01/20 03:11:56;;;;;;;1.57;0.80;;;;;;;-0.60;100.00;62847.28;5072764;28;20694;-55
2024/01/20 03:14:22;;;;;;;1.30;0.90;;;;;;;-0.46;100.00;62862.44;5072542;28;20211;-52
2024/01/20 03:16:47;;;;;;;1.10;1.10;;;;;;;-0.55;100.00;62849.69;5072518;28;20291;-53
2024/01/20 03:19:13;;;;;;;1.73;1.30;;;;;;;-0.49;100.00;62859.19;5072566;28;20199;-53
2024/01/20 03:21:39;;;;;;;1.57;1.10;;;;;;;-0.54;100.00;62856.25;5072629;28;20189;-54
2024/01/20 03:24:05;;;;;;;1.93;1.57;;;;;;;-0.61;100.00;62843.19;5072649;28;20258;-55
2024/01/20 03:26:31;;;;;;;1.40;1.30;;;;;;;-0.50;100.00;62857.56;5071266;28;20581;-54
2024/01/20 03:28:56;;;;;;;1.27;1.10;;;;;;;-0.60;100.00;62846.75;5072499;28;20188;-54
2024/01/20 03:31:22;;;;;;;1.20;1.10;;;;;;;-0.68;100.00;62835.63;5054563;28;20263;-53
2024/01/20 03:33:47;;;;;;;1.30;1.20;;;;;;;-0.67;100.00;62839.19;5054273;28;20702;-54
2024/01/20 03:36:13;;;;;;;2.03;1.10;;;;;;;-0.67;100.00;62839.19;5072256;28;20637;-54
2024/01/20 03:38:38;;;;;;;1.20;1.00;;;;;;;-0.81;100.00;62824.59;5070984;28;20658;-55
2024/01/20 03:41:04;;;;;;;1.53;1.10;;;;;;;-0.77;100.00;62828.91;5072492;28;20184;-56
2024/01/20 03:43:29;;;;;;;1.30;1.20;;;;;;;-0.76;100.00;62829.97;5072165;28;20213;-53
2024/01/20 03:45:55;;;;;;;0.97;0.97;;;;;;;-0.89;100.00;62814.00;5072180;28;20228;-52
2024/01/20 03:48:21;;;;;;;1.10;1.00;;;;;;;-0.91;100.00;62811.81;5071982;28;20221;-53
2024/01/20 03:50:46;;;;;;;1.27;1.10;;;;;;;-0.84;100.00;62821.34;5072017;28;20184;-55
2024/01/20 03:53:12;;;;;;;1.57;1.30;;;;;;;-0.86;100.00;62819.72;5071865;28;20238;-54
2024/01/20 03:55:38;;;;;;;3.30;0.97;;;;;;;-0.98;100.00;62806.75;5071830;28;20208;-55
2024/01/20 03:58:03;;;;;;;1.17;0.97;;;;;;;-0.89;100.00;62816.47;5053847;28;20219;-55
2024/01/20 04:00:29;;;;;;;1.27;1.13;;;;;;;-0.93;100.00;62811.59;5071900;28;20655;-54
2024/01/20 04:02:55;;;;;;;1.23;0.80;;;;;;;-0.98;100.00;62806.75;5071621;28;20224;-54
2024/01/20 04:05:21;;;;;;;0.90;0.87;;;;;;;-1.07;100.00;62798.94;5071728;28;20208;-54
2024/01/20 04:07:46;;;;;;;1.10;1.10;;;;;;;-0.93;100.00;62809.66;5072027;28;20205;-54
2024/01/20 04:12:56;;;;;;;1.13;1.03;;;;;;;-1.04;100.00;62797.25;5071988;28;20713;-53
2024/01/20 04:15:22;;;;;;;2.47;1.23;;;;;;;-0.92;100.00;62813.22;5071632;28;20220;-53
2024/01/20 04:17:47;;;;;;;1.67;1.27;;;;;;;-0.99;100.00;62802.66;5053718;28;20209;-53
2024/01/20 04:20:13;;;;;;;1.53;1.00;;;;;;;-1.03;100.00;62803.28;5071574;28;20245;-54
2024/01/20 04:22:38;;;;;;;2.37;1.10;;;;;;;-0.97;100.00;62807.28;5071458;28;20215;-54
2024/01/20 04:25:05;;;;;;;1.20;0.90;;;;;;;-0.97;100.00;62804.81;5071485;28;20641;-55
2024/01/20 04:27:30;;;;;;;1.10;1.00;;;;;;;-0.98;100.00;62803.72;5071259;28;20294;-54
2024/01/20 04:29:56;;;;;;;1.40;0.97;;;;;;;-1.14;100.00;62788.91;5071628;28;20273;-53
2024/01/20 04:32:21;;;;;;;2.43;1.33;;;;;;;-1.22;100.00;62780.78;5052816;28;20715;-55
2024/01/20 04:34:47;;;;;;;1.00;0.90;;;;;;;-1.18;100.00;62782.66;5071131;28;20220;-54
2024/01/20 04:37:12;;;;;;;3.77;0.90;;;;;;;-1.18;100.00;62785.13;5053246;28;20212;-55
2024/01/20 04:39:38;;;;;;;0.70;0.60;;;;;;;-1.23;100.00;62779.19;5071229;28;20259;-54
2024/01/20 04:42:04;;;;;;;0.70;0.70;;;;;;;-1.24;100.00;62778.63;5071529;28;20262;-54
2024/01/20 04:44:29;;;;;;;1.10;1.00;;;;;;;-1.34;100.00;62767.81;5071131;28;20280;-53
2024/01/20 04:46:54;;;;;;;0.70;0.70;;;;;;;-1.32;100.00;62769.44;5071273;28;20719;-55
2024/01/20 04:49:20;;;;;;;1.33;1.13;;;;;;;-1.29;100.00;62772.66;5071348;28;20196;-55
2024/01/20 04:51:47;;;;;;;0.93;0.87;;;;;;;-1.19;100.00;62781.03;5070953;28;20203;-53
2024/01/20 04:54:13;;;;;;;1.10;0.90;;;;;;;-1.08;100.00;62795.38;5053023;28;20196;-55
2024/01/20 04:56:38;;;;;;;1.93;0.93;;;;;;;-1.17;100.00;62786.19;5071396;28;20274;-55
2024/01/20 04:59:04;;;;;;;1.30;1.20;;;;;;;-1.15;100.00;62785.34;5070824;28;20180;-54
2024/01/20 05:01:30;;;;;;;0.67;0.67;;;;;;;-1.14;100.00;62786.44;5071058;28;20184;-54
2024/01/20 05:03:55;;;;;;;1.60;1.00;;;;;;;-1.13;100.00;62790.50;5052868;28;20217;-54
2024/01/20 05:06:20;;;;;;;3.17;1.70;;;;;;;-1.26;100.00;62775.94;5052980;28;20201;-54
2024/01/20 05:08:46;;;;;;;1.43;1.13;;;;;;;-1.23;100.00;62782.19;5071117;28;20278;-54
2024/01/20 05:11:12;;;;;;;2.20;1.63;;;;;;;-1.25;100.00;62777.03;5052727;28;20253;-54
2024/01/20 05:13:37;;;;;;;3.03;1.00;;;;;;;-1.25;100.00;62777.03;5070732;28;20210;-54
2024/01/20 05:16:03;;;;;;;1.30;1.20;;;;;;;-1.28;100.00;62769.38;5052817;28;20220;-52
2024/01/20 05:18:28;;;;;;;2.17;1.37;;;;;;;-1.28;100.00;62771.84;5070685;28;20609;-54
2024/01/20 05:20:54;;;;;;;1.60;1.40;;;;;;;-1.16;100.00;62787.28;5052927;28;20192;-53
2024/01/20 05:23:19;;;;;;;1.33;1.23;;;;;;;-1.28;100.00;62774.31;5070700;28;20208;-54
2024/01/20 05:25:45;;;;;;;1.50;1.40;;;;;;;-1.39;100.00;62761.88;5054418;28;20204;-53
2024/01/20 05:28:11;;;;;;;1.90;1.43;;;;;;;-1.35;100.00;62766.19;5074134;28;20222;-53
2024/01/20 05:30:36;;;;;;;1.37;1.03;;;;;;;-1.30;100.00;62766.66;5074148;28;20188;-53
2024/01/20 05:33:02;;;;;;;2.10;1.47;;;;;;;-1.36;100.00;62763.19;5074162;28;20229;-53
2024/01/20 05:35:27;;;;;;;1.73;1.10;;;;;;;-1.29;100.00;62770.75;5074515;28;20212;-59
2024/01/20 05:37:53;;;;;;;1.90;1.37;;;;;;;-1.36;100.00;62765.66;5074512;28;20219;-54
2024/01/20 05:40:18;;;;;;;1.80;1.17;;;;;;;-1.45;100.00;62755.38;5074064;28;20299;-54
2024/01/20 05:42:44;;;;;;;1.33;1.20;;;;;;;-1.43;100.00;62757.53;5074437;28;20677;-54
2024/01/20 05:45:10;;;;;;;1.60;1.20;;;;;;;-1.40;100.00;62761.34;5074139;28;20185;-53
2024/01/20 05:47:36;;;;;;;2.00;1.50;;;;;;;-1.59;100.00;62740.81;5073820;28;20215;-54
2024/01/20 05:50:06;;;;;;;2.10;1.43;;;;;;;-1.45;100.00;62757.84;5056077;28;20198;-53
2024/01/20 05:52:32;;;;;;;3.10;1.43;;;;;;;-1.50;100.00;62750.00;5074517;28;20303;-54
2024/01/20 05:54:57;;;;;;;1.97;1.40;;;;;;;-1.38;100.00;62763.50;5073889;28;20296;-53
2024/01/20 05:57:23;;;;;;;2.33;1.30;;;;;;;-1.43;100.00;62757.53;5055967;28;20232;-55
2024/01/20 05:59:49;;;;;;;1.97;1.60;;;;;;;-1.43;100.00;62755.63;5055645;28;20279;-54
2024/01/20 06:02:15;;;;;;;2.77;1.80;;;;;;;-1.35;100.00;62768.66;5074037;28;20761;-54
2024/01/20 06:04:42;;;;;;;3.63;1.73;;;;;;;-1.53;100.00;62746.75;5073677;28;20243;-54
2024/01/20 06:07:08;;;;;;;2.80;1.77;;;;;;;-1.41;100.00;62759.69;5073647;28;20239;-56
2024/01/20 06:09:34;;;;;;;2.10;1.90;;;;;;;-1.49;100.00;62751.06;5073522;28;20189;-54
2024/01/20 06:11:59;;;;;;;2.00;1.63;;;;;;;-1.42;100.00;62758.63;5073488;28;20747;-54
2024/01/20 06:14:25;;;;;;;2.37;1.90;;;;;;;-1.58;100.00;62741.88;5073545;28;20192;-54
2024/01/20 06:16:50;;;;;;;2.57;1.70;;;;;;;-1.54;100.00;62745.66;5073457;28;20224;-53
2024/01/20 06:19:16;;;;;;;10.37;2.37;;;;;;;-0.98;100.00;62808.66;5073586;28;20203;-54
2024/01/20 06:21:42;;;;;;;3.57;1.83;;;;;;;-1.19;100.00;62784.03;5073874;28;20196;-54
2024/01/20 06:24:08;;;;;;;4.60;2.33;;;;;;;-1.25;100.00;62777.53;5073423;28;20196;-53
2024/01/20 06:26:34;;;;;;;2.17;1.50;;;;;;;-1.32;100.00;62772.47;5073415;28;20199;-54
2024/01/20 06:29:00;;;;;;;3.70;1.83;;;;;;;-1.38;100.00;62760.50;5073016;28;20217;-54
2024/01/20 06:31:27;;;;;;;2.13;1.50;;;;;;;-1.48;100.00;62752.69;5073271;28;20219;-55
2024/01/20 06:33:53;;;;;;;1.70;1.37;;;;;;;-1.56;100.00;62749.00;5073116;28;20217;-56
2024/01/20 06:36:21;;;;;;;2.67;1.40;;;;;;;-1.60;100.00;62741.66;5073494;28;20252;-53
2024/01/20 06:38:48;;;;;;;2.03;1.40;;;;;;;-1.56;100.00;62743.50;5055018;28;20700;-53
2024/01/20 06:41:15;;;;;;;1.67;1.30;;;;;;;-1.61;100.00;62738.63;5073106;28;20265;-54
2024/01/20 06:43:40;;;;;;;1.70;1.60;;;;;;;-1.58;100.00;62741.88;5072876;28;20276;-54
2024/01/20 06:46:07;;;;;;;2.50;1.57;;;;;;;-1.48;100.00;62752.69;5072953;28;20223;-53
2024/01/20 06:48:34;;;;;;;1.17;1.07;;;;;;;-1.59;100.00;62740.25;5054970;28;20631;-54
2024/01/20 06:51:03;;;;;;;2.10;1.30;;;;;;;-1.66;100.00;62733.25;5055084;28;20196;-54
2024/01/20 06:53:30;;;;;;;3.00;1.77;;;;;;;-1.59;100.00;62740.81;5072898;28;20220;-54
2024/01/20 06:55:56;;;;;;;2.30;1.67;;;;;;;-1.48;100.00;62752.69;5072760;28;20209;-55
2024/01/20 06:58:23;;;;;;;2.37;1.47;;;;;;;-1.43;100.00;62755.06;5071546;28;20297;-54
2024/01/20 07:00:49;;;;;;;2.27;1.97;;;;;;;-1.42;100.00;62753.69;5054969;28;20638;-55
2024/01/20 07:03:15;;;;;;;1.30;1.13;;;;;;;-1.38;100.00;62761.03;5072784;28;20295;-53
2024/01/20 07:05:41;;;;;;;1.20;1.10;;;;;;;-1.35;100.00;62766.19;5072737;28;20228;-53
2024/01/20 07:08:06;;;;;;;2.80;1.70;;;;;;;-1.39;100.00;62762.41;5072797;28;20212;-54
2024/01/20 07:10:32;;;;;;;4.30;1.90;;;;;;;-1.41;100.00;62759.69;5054616;28;20191;-56
2024/01/20 07:12:58;;;;;;;2.63;1.60;;;;;;;-1.44;100.00;62754.56;5072125;28;20266;-54
2024/01/20 07:15:23;;;;;;;2.10;1.50;;;;;;;-1.44;100.00;62754.00;5053895;28;20725;-54
2024/01/20 07:17:49;;;;;;;2.10;1.43;;;;;;;-1.44;100.00;62759.50;5072509;28;20244;-52
2024/01/20 07:20:14;;;;;;;1.73;1.10;;;;;;;-1.52;100.00;62748.38;5072222;28;20279;-53
2024/01/20 07:22:41;;;;;;;6.57;4.13;;;;;;;-1.46;100.00;62757.31;5072454;28;20204;-53
2024/01/20 07:25:10;;;;;;;4.20;2.03;;;;;;;-1.45;100.00;62755.94;5054261;28;20193;-54
2024/01/20 07:27:35;;;;;;;1.50;1.33;;;;;;;-1.49;100.00;62753.53;5072294;28;20208;-55
2024/01/20 07:30:01;;;;;;;3.83;1.50;;;;;;;-1.46;100.00;62751.84;5072090;28;20196;-53
2024/01/20 07:32:27;;;;;;;5.17;1.70;;;;;;;-1.48;100.00;62752.16;5072655;28;20539;-52
2024/01/20 07:34:52;;;;;;;5.33;2.00;;;;;;;-1.43;100.00;62758.09;5072474;28;20624;-56
2024/01/20 07:37:18;;;;;;;3.47;1.90;;;;;;;-1.48;100.00;62752.69;5072353;28;20696;-55
2024/01/20 07:39:44;;;;;;;2.83;2.03;;;;;;;-1.43;100.00;62757.53;5071688;28;20674;-55
2024/01/20 07:42:10;;;;;;;4.80;2.10;;;;;;;-1.60;100.00;62739.19;5070446;28;20755;-55
2024/01/20 07:44:36;;;;;;;4.47;1.70;;;;;;;-1.62;100.00;62737.03;5053869;28;20228;-54
2024/01/20 07:47:02;;;;;;;2.27;1.70;;;;;;;-1.58;100.00;62741.88;5071969;28;20265;-54
2024/01/20 07:49:28;;;;;;;2.53;1.87;;;;;;;-1.48;100.00;62752.69;5071293;28;20193;-56
2024/01/20 07:51:53;;;;;;;4.27;1.77;;;;;;;-1.43;100.00;62755.06;5072338;28;20215;-54
2024/01/20 07:54:19;;;;;;;3.03;2.10;;;;;;;-1.41;100.00;62760.25;5071965;28;20277;-56
2024/01/20 07:56:45;;;;;;;6.83;3.10;;;;;;;-1.46;100.00;62754.31;5061683;22;20694;-54
2024/01/20 07:59:10;;;;;;;3.83;2.23;;;;;;;-1.43;100.00;62757.53;5071256;28;20208;-54
2024/01/20 08:01:35;;;;;;;5.23;2.37;;;;;;;-1.42;100.00;62758.63;5071466;28;20185;-55
2024/01/20 08:04:02;;;;;;;3.33;2.20;;;;;;;-1.60;100.00;62739.72;5071848;28;20192;-55
2024/01/20 08:06:27;;;;;;;2.53;1.70;;;;;;;-1.45;100.00;62755.38;5080300;22;20220;-54
2024/01/20 08:08:53;;;;;;;3.20;2.00;;;;;;;-1.35;100.00;62764.25;5071618;28;20639;-55
2024/01/20 08:11:19;;;;;;;2.63;2.03;;;;;;;-1.57;100.00;62739.94;5070223;28;20672;-54
2024/01/20 08:13:45;;;;;;;2.07;1.73;;;;;;;-1.46;100.00;62752.38;5053520;28;20294;-56
2024/01/20 08:16:10;;;;;;;3.83;2.33;;;;;;;-1.54;100.00;62743.19;5071621;28;20303;-55
2024/01/20 08:18:36;;;;;;;4.30;2.13;;;;;;;-1.53;100.00;62744.28;5071466;28;20209;-53
2024/01/20 08:21:06;;;;;;;2.47;1.97;;;;;;;-1.39;100.00;62761.88;5071453;28;20192;-54
2024/01/20 08:23:33;;;;;;;2.63;2.13;;;;;;;-1.40;100.00;62755.84;5052400;28;20221;-54
2024/01/20 08:25:58;;;;;;;2.87;2.10;;;;;;;-1.51;100.00;62748.91;5053465;28;20254;-53
2024/01/20 08:28:24;;;;;;;2.17;1.67;;;;;;;-1.40;100.00;62761.34;5071398;28;20212;-53
2024/01/20 08:30:50;;;;;;;5.73;2.30;;;;;;;-1.30;100.00;62772.16;5071281;28;20224;-54
2024/01/20 08:33:15;;;;;;;4.43;2.40;;;;;;;-1.29;100.00;62772.66;5071384;28;20721;-55
2024/01/20 08:35:41;;;;;;;2.47;1.93;;;;;;;-1.49;100.00;62751.06;5053205;28;20593;-53
2024/01/20 08:38:07;;;;;;;5.53;2.30;;;;;;;-1.43;100.00;62758.09;5069819;28;20244;-54
2024/01/20 08:40:32;;;;;;;4.50;2.73;;;;;;;-1.51;100.00;62749.44;5071386;28;20204;-55
2024/01/20 08:42:59;;;;;;;3.00;2.00;;;;;;;-1.53;100.00;62746.75;5071241;28;20265;-55
2024/01/20 08:45:25;;;;;;;4.23;2.37;;;;;;;-1.32;100.00;62770.00;5053676;28;20204;-55
2024/01/20 08:47:51;;;;;;;3.40;2.43;;;;;;;-1.32;100.00;62764.50;5053097;28;20235;-58
2024/01/20 08:50:18;;;;;;;5.23;2.87;;;;;;;-1.24;100.00;62778.09;5036683;28;20189;-55
2024/01/20 08:52:43;;;;;;;3.60;2.77;;;;;;;-1.33;100.00;62768.34;5069733;28;20704;-55
2024/01/20 08:55:09;;;;;;;2.80;2.00;;;;;;;-1.30;100.00;62774.63;5071021;28;20225;-55
2024/01/20 08:57:36;;;;;;;4.47;2.67;;;;;;;-1.17;100.00;62783.19;5070819;28;20209;-53
2024/01/20 09:00:02;;;;;;;2.87;2.07;;;;;;;-1.05;100.00;62798.63;5070035;28;20208;-53
2024/01/20 09:02:27;;;;;;;4.07;2.80;;;;;;;-1.07;100.00;62798.94;5069954;28;20243;-56
2024/01/20 09:04:53;;;;;;;3.93;2.90;;;;;;;-1.06;100.00;62800.00;5070898;28;20220;-54
2024/01/20 09:07:20;;;;;;;5.27;3.43;;;;;;;-0.82;100.00;62820.47;5070582;28;20328;-53
2024/01/20 09:09:46;;;;;;;9.23;4.67;;;;;;;-0.75;100.00;62830.53;5071037;28;20200;-55
2024/01/20 09:12:13;;;;;;;4.67;2.50;;;;;;;-0.96;100.00;62810.81;5069288;28;20296;-53
2024/01/20 09:14:39;;;;;;;3.37;2.50;;;;;;;-1.01;100.00;62805.44;5051856;28;20196;-53
2024/01/20 09:17:05;;;;;;;5.47;3.33;;;;;;;-1.02;100.00;62801.88;5070639;28;20239;-54
2024/01/20 09:19:30;;;;;;;6.77;4.07;;;;;;;-1.07;100.00;62796.47;5070568;28;20212;-59
2024/01/20 09:21:56;;;;;;;7.23;4.43;;;;;;;-0.89;100.00;62815.94;5070846;28;20208;-54
2024/01/20 09:24:22;;;;;;;5.63;3.23;;;;;;;-1.02;100.00;62801.88;5070945;28;20203;-53
2024/01/20 09:26:47;;;;;;;8.57;5.37;;;;;;;-0.88;100.00;62817.00;5052607;28;20188;-53
2024/01/20 09:29:13;;;;;;;5.40;3.67;;;;;;;-1.06;100.00;62797.53;5070701;28;20199;-53
2024/01/20 09:31:38;;;;;;;6.30;3.63;;;;;;;-1.31;100.00;62768.03;5052438;28;20197;-53
2024/01/20 09:34:04;;;;;;;6.07;4.20;;;;;;;-1.35;100.00;62769.19;5070419;28;20203;-53
2024/01/20 09:36:29;;;;;;;6.30;3.87;;;;;;;-1.27;100.00;62772.38;5069784;28;20295;-53
2024/01/20 09:38:55;;;;;;;8.00;4.53;;;;;;;-1.24;100.00;62778.09;5077490;22;20762;-54
2024/01/20 09:41:21;;;;;;;9.83;4.70;;;;;;;-1.35;100.00;62766.72;5052045;28;20197;-54
2024/01/20 09:43:48;;;;;;;7.83;4.90;;;;;;;-1.12;100.00;62789.13;5070417;28;20257;-53
2024/01/20 09:46:15;;;;;;;8.37;4.30;;;;;;;-1.20;100.00;62782.41;5070153;28;20184;-52
2024/01/20 09:48:42;;;;;;;7.53;4.93;;;;;;;-1.12;100.00;62789.13;5070119;28;20219;-59
2024/01/20 09:51:08;;;;;;;8.07;4.77;;;;;;;-1.15;100.00;62787.81;5070163;28;20299;-53
2024/01/20 09:53:35;;;;;;;13.97;5.83;;;;;;;-1.23;100.00;62779.69;5070511;28;20832;-54
2024/01/20 09:56:01;;;;;;;8.70;5.37;;;;;;;-1.30;100.00;62771.59;5070100;28;20215;-55
2024/01/20 09:58:28;;;;;;;9.00;5.40;;;;;;;-1.30;100.00;62771.59;5070424;28;20663;-54
2024/01/20 10:00:55;;;;;;;8.77;5.60;;;;;;;-1.40;100.00;62760.78;5070255;28;20185;-55
2024/01/20 10:03:27;;;;;;;8.37;5.33;;;;;;;-1.25;100.00;62777.03;5051840;28;20244;-53
2024/01/20 10:05:53;;;;;;;10.63;5.90;;;;;;;-1.17;100.00;62783.72;5070207;28;20188;-53
2024/01/20 10:08:18;;;;;;;16.30;7.70;;;;;;;-0.98;100.00;62806.19;5070312;28;20216;-54
2024/01/20 10:10:44;;;;;;;10.00;6.13;;;;;;;-0.89;100.00;62816.47;5069327;28;20566;-53
2024/01/20 10:13:09;;;;;;;7.03;4.20;;;;;;;-1.14;100.00;62793.84;5073218;28;20682;-54
2024/01/20 10:15:35;;;;;;;11.23;5.97;;;;;;;-1.37;100.00;62762.09;5055393;28;20523;-55
2024/01/20 10:18:08;;;;;;;10.43;6.00;;;;;;;-1.30;100.00;62769.13;5073334;28;20212;-55
2024/01/20 10:20:35;;;;;;;10.27;6.00;;;;;;;-1.31;100.00;62768.03;5073600;28;20197;-54
2024/01/20 10:23:03;;;;;;;8.73;5.70;;;;;;;-1.33;100.00;62768.91;5055476;28;20220;-54
2024/01/20 10:25:29;;;;;;;13.33;6.97;;;;;;;-1.24;100.00;62778.63;5073485;28;20263;-53
2024/01/20 10:27:55;;;;;;;13.83;6.80;;;;;;;-1.27;100.00;62774.84;5073489;28;20238;-55
2024/01/20 10:30:21;;;;;;;13.90;7.07;;;;;;;-1.06;100.00;62797.53;5073504;28;20184;-54
2024/01/20 10:32:50;;;;;;;12.83;7.10;;;;;;;-1.20;100.00;62782.97;5073486;28;20716;-53
2024/01/20 10:35:15;;;;;;;13.50;8.03;;;;;;;-1.02;100.00;62801.88;5073088;28;20187;-54
2024/01/20 10:37:44;;;;;;;10.40;6.63;;;;;;;-0.98;100.00;62806.19;5073327;28;20592;-54
2024/01/20 10:40:14;;;;;;;10.40;6.53;;;;;;;-1.09;100.00;62791.84;5073171;28;20214;-53
2024/01/20 10:42:47;;;;;;;11.30;6.30;;;;;;;-1.07;100.00;62791.53;5073196;28;20830;-54
2024/01/20 10:45:18;;;;;;;11.03;6.83;;;;;;;-0.91;100.00;62813.78;5073470;28;20208;-53
2024/01/20 10:48:07;;;;;;;16.93;9.17;;;;;;;-1.17;100.00;62785.66;5055147;28;20213;-52
2024/01/20 10:50:35;;;;;;;9.93;5.47;;;;;;;-1.20;100.00;62782.41;5073044;28;20184;-53
2024/01/20 10:53:03;;;;;;;19.30;9.53;;;;;;;-1.11;100.00;62794.63;5073283;28;20295;-53
2024/01/20 10:55:30;;;;;;;16.93;6.10;;;;;;;-1.06;100.00;62795.06;5073137;28;20208;-54
2024/01/20 10:57:57;;;;;;;10.07;6.33;;;;;;;-1.14;100.00;62789.44;5073439;28;20228;-52
2024/01/20 11:00:23;;;;;;;8.97;5.63;;;;;;;-1.11;100.00;62794.63;5072307;28;20189;-54
2024/01/20 11:02:49;;;;;;;10.33;6.00;;;;;;;-1.14;100.00;62791.91;5073095;28;20196;-54
2024/01/20 11:05:21;;;;;;;9.07;5.90;;;;;;;-1.22;100.00;62780.25;5072746;28;20659;-53
2024/01/20 11:08:22;;;;;;;11.60;7.60;;;;;;;-0.97;100.00;62809.75;5054701;28;20303;-54
2024/01/20 11:10:50;;;;;;;13.73;7.87;;;;;;;-0.88;100.00;62817.56;5070999;28;20225;-53
2024/01/20 11:13:16;;;;;;;9.93;6.03;;;;;;;-1.24;100.00;62780.56;5070211;28;20205;-53
2024/01/20 11:15:48;;;;;;;17.13;7.63;;;;;;;-1.05;100.00;62801.09;5070399;28;20757;-54
2024/01/20 11:18:20;;;;;;;11.97;7.63;;;;;;;-1.05;100.00;62798.63;5070617;28;20302;-54
2024/01/20 11:21:00;;;;;;;14.47;7.37;;;;;;;-0.95;100.00;62809.97;5070498;28;20213;-54
2024/01/20 11:23:26;;;;;;;13.93;6.80;;;;;;;-0.96;100.00;62808.91;5069683;28;20222;-53
2024/01/20 11:25:53;;;;;;;11.33;7.00;;;;;;;-1.16;100.00;62784.25;5072065;28;20220;-54